createdAt,value
2023-01-10T00:02:03.295Z,2.38
2023-01-10T00:04:31.821Z,2.97
2023-01-10T00:06:59.181Z,2.50
2023-01-10T00:09:26.780Z,2.45
2023-01-10T00:12:29.684Z,2.47
2023-01-10T00:14:57.000Z,2.60
2023-01-10T00:17:24.388Z,2.80
2023-01-10T00:19:51.739Z,2.50
2023-01-10T00:22:21.485Z,3.03
2023-01-10T00:24:48.918Z,2.47
2023-01-10T00:27:21.467Z,2.40
2023-01-10T00:29:52.291Z,2.50
2023-01-10T00:34:48.312Z,2.38
2023-01-10T00:37:15.717Z,2.65
2023-01-10T00:39:45.090Z,3.13
2023-01-10T00:42:30.885Z,2.55
2023-01-10T00:44:58.327Z,2.33
2023-01-10T00:47:25.667Z,3.20
2023-01-10T00:49:52.975Z,2.83
2023-01-10T00:52:20.547Z,2.75
2023-01-10T00:54:47.900Z,2.95
2023-01-10T00:57:15.259Z,3.05
2023-01-10T00:59:42.681Z,2.85
2023-01-10T01:02:10.136Z,2.85
2023-01-10T01:04:38.110Z,3.22
2023-01-10T01:07:05.462Z,3.13
2023-01-10T01:09:32.743Z,2.80
2023-01-10T01:12:01.203Z,3.20
2023-01-10T01:14:28.583Z,2.92
2023-01-10T01:16:56.422Z,3.22
2023-01-10T01:19:23.750Z,3.10
2023-01-10T01:21:51.231Z,2.63
2023-01-10T01:24:18.639Z,3.15
2023-01-10T01:26:46.190Z,3.30
2023-01-10T01:29:13.511Z,2.90
2023-01-10T01:31:41.400Z,3.83
2023-01-10T01:34:08.780Z,3.08
2023-01-10T01:36:36.369Z,3.75
2023-01-10T01:39:04.066Z,3.63
2023-01-10T01:41:49.922Z,2.90
2023-01-10T01:44:20.118Z,2.72
2023-01-10T01:46:55.327Z,4.07
2023-01-10T01:49:24.418Z,3.95
2023-01-10T01:52:02.470Z,3.90
2023-01-10T01:54:31.957Z,3.60
2023-01-10T01:57:11.384Z,3.05
2023-01-10T01:59:43.466Z,3.08
2023-01-10T02:02:33.536Z,3.58
2023-01-10T02:05:05.113Z,3.75
2023-01-10T02:07:38.011Z,2.80
2023-01-10T02:10:13.605Z,3.22
2023-01-10T02:12:41.850Z,3.65
2023-01-10T02:15:10.833Z,2.95
2023-01-10T02:17:40.809Z,3.45
2023-01-10T02:20:13.501Z,3.78
2023-01-10T02:23:02.851Z,3.97
2023-01-10T02:25:48.390Z,3.03
2023-01-10T02:28:43.501Z,4.78
2023-01-10T02:31:20.469Z,3.90
2023-01-10T02:33:59.327Z,3.67
2023-01-10T02:37:00.953Z,4.72
2023-01-10T02:39:49.493Z,3.97
2023-01-10T02:42:29.630Z,3.45
2023-01-10T02:45:35.875Z,3.65
2023-01-10T02:48:03.901Z,3.90
2023-01-10T02:50:31.157Z,4.47
2023-01-10T02:53:01.823Z,3.13
2023-01-10T02:58:31.732Z,3.10
2023-01-10T03:01:07.432Z,3.72
2023-01-10T03:04:16.668Z,3.85
2023-01-10T03:06:59.672Z,3.80
2023-01-10T03:09:39.616Z,3.38
2023-01-10T03:12:19.674Z,2.70
2023-01-10T03:14:48.976Z,3.55
2023-01-10T03:17:19.559Z,3.80
2023-01-10T03:19:51.617Z,3.55
2023-01-10T03:22:18.939Z,4.60
2023-01-10T03:24:49.308Z,3.28
2023-01-10T03:27:37.951Z,3.58
2023-01-10T03:30:28.441Z,2.60
2023-01-10T03:32:57.437Z,3.15
2023-01-10T03:35:52.138Z,3.05
2023-01-10T03:38:32.778Z,4.97
2023-01-10T03:41:04.773Z,4.00
2023-01-10T03:43:56.613Z,3.50
2023-01-10T03:46:35.365Z,3.58
2023-01-10T03:49:05.233Z,3.70
2023-01-10T03:51:33.846Z,3.37
2023-01-10T03:54:02.394Z,3.28
2023-01-10T03:56:31.316Z,3.45
2023-01-10T03:58:58.991Z,3.42
2023-01-10T04:01:27.391Z,3.38
2023-01-10T04:03:55.087Z,4.18
2023-01-10T04:06:22.429Z,3.65
2023-01-10T04:08:49.656Z,3.95
2023-01-10T04:11:16.922Z,2.83
2023-01-10T04:13:44.253Z,4.13
2023-01-10T04:16:12.123Z,2.70
2023-01-10T04:18:39.425Z,3.92
2023-01-10T04:21:09.621Z,2.90
2023-01-10T04:23:40.013Z,3.25
2023-01-10T04:26:07.491Z,4.05
2023-01-10T04:28:34.774Z,3.70
2023-01-10T04:31:02.112Z,3.33
2023-01-10T04:33:31.476Z,3.40
2023-01-10T04:35:58.839Z,2.85
2023-01-10T04:38:26.123Z,3.83
2023-01-10T04:40:55.005Z,2.97
2023-01-10T04:43:23.399Z,3.95
2023-01-10T04:45:50.841Z,3.92
2023-01-10T04:48:20.974Z,3.28
2023-01-10T04:50:52.341Z,3.80
2023-01-10T04:53:20.552Z,7.60
2023-01-10T04:55:48.564Z,5.15
2023-01-10T04:58:15.896Z,5.18
2023-01-10T05:00:53.783Z,4.15
2023-01-10T05:03:21.425Z,4.05
2023-01-10T05:05:48.812Z,4.20
2023-01-10T05:08:16.326Z,4.03
2023-01-10T05:10:44.060Z,4.10
2023-01-10T05:13:11.396Z,3.67
2023-01-10T05:15:38.767Z,3.80
2023-01-10T05:18:06.031Z,3.58
2023-01-10T05:20:33.316Z,3.60
2023-01-10T05:23:01.989Z,3.47
2023-01-10T05:25:31.405Z,3.03
2023-01-10T05:27:58.711Z,4.40
2023-01-10T05:30:26.040Z,4.55
2023-01-10T05:32:53.345Z,4.15
2023-01-10T05:35:20.796Z,5.00
2023-01-10T05:37:48.106Z,4.53
2023-01-10T05:40:15.556Z,3.45
2023-01-10T05:42:42.928Z,4.05
2023-01-10T05:45:10.681Z,4.25
2023-01-10T05:47:38.097Z,4.18
2023-01-10T05:50:05.765Z,5.50
2023-01-10T05:52:33.093Z,3.88
2023-01-10T05:55:01.955Z,3.60
2023-01-10T05:57:29.295Z,4.45
2023-01-10T05:59:56.572Z,3.88
2023-01-10T06:02:26.597Z,3.58
2023-01-10T06:04:55.522Z,3.53
2023-01-10T06:07:24.872Z,3.70
2023-01-10T06:09:52.258Z,3.53
2023-01-10T06:12:19.672Z,4.05
2023-01-10T06:14:47.385Z,4.10
2023-01-10T06:17:14.678Z,3.30
2023-01-10T06:19:41.904Z,3.35
2023-01-10T06:22:09.241Z,3.67
2023-01-10T06:24:36.640Z,3.03
2023-01-10T06:27:03.940Z,2.85
2023-01-10T06:29:31.575Z,3.22
2023-01-10T06:31:58.977Z,3.38
2023-01-10T06:34:26.727Z,5.03
2023-01-10T06:36:54.363Z,3.80
2023-01-10T06:39:21.722Z,4.07
2023-01-10T06:41:49.053Z,5.07
2023-01-10T06:44:18.512Z,4.97
2023-01-10T06:46:45.977Z,3.78
2023-01-10T06:49:13.293Z,5.07
2023-01-10T06:51:40.761Z,4.30
2023-01-10T06:54:08.267Z,4.18
2023-01-10T06:56:35.635Z,5.55
2023-01-10T06:59:02.939Z,5.13
2023-01-10T07:01:30.758Z,4.70
2023-01-10T07:03:58.393Z,5.28
2023-01-10T07:06:25.786Z,4.85
2023-01-10T07:08:55.484Z,4.18
2023-01-10T07:11:23.232Z,3.87
2023-01-10T07:13:54.072Z,3.95
2023-01-10T07:16:21.550Z,4.30
2023-01-10T07:18:48.948Z,4.32
2023-01-10T07:21:18.144Z,4.80
2023-01-10T07:23:51.822Z,4.53
2023-01-10T07:26:19.671Z,6.15
2023-01-10T07:28:52.072Z,5.55
2023-01-10T07:31:20.573Z,9.73
2023-01-10T07:33:47.905Z,8.52
2023-01-10T07:36:15.430Z,8.35
2023-01-10T07:38:42.730Z,7.15
2023-01-10T07:41:10.295Z,6.63
2023-01-10T07:43:38.810Z,7.35
2023-01-10T07:46:12.497Z,7.57
2023-01-10T07:48:42.061Z,6.30
2023-01-10T07:51:09.831Z,6.72
2023-01-10T07:53:38.227Z,5.38
2023-01-10T07:56:05.916Z,5.20
2023-01-10T07:58:33.357Z,5.05
2023-01-10T08:01:05.082Z,4.60
2023-01-10T08:03:33.476Z,6.47
2023-01-10T08:06:03.680Z,6.90
2023-01-10T08:08:31.825Z,5.65
2023-01-10T08:11:05.303Z,6.38
2023-01-10T08:13:33.218Z,7.50
2023-01-10T08:16:05.601Z,5.03
2023-01-10T08:18:33.502Z,4.55
2023-01-10T08:21:01.038Z,5.35
2023-01-10T08:23:28.434Z,6.80
2023-01-10T08:25:58.875Z,7.07
2023-01-10T08:28:27.684Z,6.30
2023-01-10T08:30:56.226Z,7.00
2023-01-10T08:33:25.236Z,8.00
2023-01-10T08:35:52.553Z,5.63
2023-01-10T08:38:19.925Z,6.85
2023-01-10T08:40:47.392Z,5.60
2023-01-10T08:43:15.210Z,6.55
2023-01-10T08:45:42.613Z,6.30
2023-01-10T08:48:10.605Z,6.88
2023-01-10T08:50:38.069Z,6.55
2023-01-10T08:53:05.436Z,5.95
2023-01-10T08:55:35.544Z,6.28
2023-01-10T08:58:03.055Z,5.50
2023-01-10T09:00:31.371Z,6.13
2023-01-10T09:02:58.787Z,5.55
2023-01-10T09:05:28.117Z,5.65
2023-01-10T09:08:01.490Z,5.80
2023-01-10T09:10:29.915Z,5.68
2023-01-10T09:13:01.891Z,6.63
2023-01-10T09:15:32.406Z,5.90
2023-01-10T09:18:02.741Z,6.30
2023-01-10T09:20:34.899Z,6.00
2023-01-10T09:23:11.023Z,5.55
2023-01-10T09:25:38.878Z,6.13
2023-01-10T09:28:06.261Z,5.22
2023-01-10T09:30:34.009Z,5.60
2023-01-10T09:33:01.603Z,6.07
2023-01-10T09:35:30.807Z,7.63
2023-01-10T09:38:03.386Z,5.28
2023-01-10T09:40:39.648Z,5.80
2023-01-10T09:43:21.444Z,5.18
2023-01-10T09:46:05.515Z,6.00
2023-01-10T09:48:53.968Z,4.70
2023-01-10T09:51:27.391Z,4.75
2023-01-10T09:54:10.683Z,5.40
2023-01-10T09:56:41.521Z,4.43
2023-01-10T09:59:31.260Z,6.45
2023-01-10T10:02:06.248Z,5.00
2023-01-10T10:04:36.776Z,6.20
2023-01-10T10:07:13.529Z,8.18
2023-01-10T10:09:42.532Z,6.03
2023-01-10T10:12:37.543Z,5.30
2023-01-10T10:15:26.225Z,6.05
2023-01-10T10:18:03.016Z,6.05
2023-01-10T10:20:56.917Z,4.97
2023-01-10T10:23:48.787Z,4.28
2023-01-10T10:26:34.614Z,4.80
2023-01-10T10:29:11.191Z,5.60
2023-01-10T10:32:18.783Z,5.60
2023-01-10T10:34:51.106Z,6.47
2023-01-10T10:37:44.219Z,5.97
2023-01-10T10:40:14.592Z,4.85
2023-01-10T10:42:49.430Z,7.90
2023-01-10T10:45:25.264Z,7.45
2023-01-10T10:48:00.955Z,6.15
2023-01-10T10:50:35.708Z,5.75
2023-01-10T10:53:06.864Z,4.75
2023-01-10T10:55:39.051Z,5.07
2023-01-10T10:58:07.708Z,4.78
2023-01-10T11:00:35.163Z,5.53
2023-01-10T11:03:24.319Z,4.40
2023-01-10T11:05:52.523Z,5.57
2023-01-10T11:08:21.948Z,5.40
2023-01-10T11:10:53.931Z,5.15
2023-01-10T11:13:33.491Z,4.50
2023-01-10T11:16:02.724Z,5.85
2023-01-10T11:18:32.232Z,4.85
2023-01-10T11:21:01.723Z,5.35
2023-01-10T11:23:47.730Z,4.88
2023-01-10T11:26:24.101Z,4.80
2023-01-10T11:29:03.876Z,4.28
2023-01-10T11:31:32.447Z,4.97
2023-01-10T11:34:04.924Z,4.93
2023-01-10T11:36:53.493Z,6.38
2023-01-10T11:39:20.904Z,5.55
2023-01-10T11:41:49.780Z,5.50
2023-01-10T11:44:17.771Z,4.80
2023-01-10T11:46:46.897Z,5.88
2023-01-10T11:49:35.361Z,5.40
2023-01-10T11:52:28.465Z,5.03
2023-01-10T11:55:01.063Z,5.45
2023-01-10T11:57:32.350Z,6.25
2023-01-10T12:00:07.022Z,6.25
2023-01-10T12:02:44.626Z,6.47
2023-01-10T12:05:21.214Z,6.43
2023-01-10T12:08:10.571Z,7.57
2023-01-10T12:10:38.109Z,6.63
2023-01-10T12:13:15.100Z,7.43
2023-01-10T12:15:42.806Z,7.22
2023-01-10T12:18:11.038Z,8.00
2023-01-10T12:20:58.040Z,7.90
2023-01-10T12:23:25.876Z,8.02
2023-01-10T12:26:07.073Z,8.63
2023-01-10T12:28:42.736Z,8.38
2023-01-10T12:31:15.519Z,8.13
2023-01-10T12:33:53.611Z,8.90
2023-01-10T12:36:34.725Z,8.80
2023-01-10T12:39:20.586Z,8.95
2023-01-10T12:42:18.028Z,8.20
2023-01-10T12:44:50.584Z,8.07
2023-01-10T12:47:49.029Z,8.00
2023-01-10T12:50:25.079Z,6.57
2023-01-10T12:53:23.532Z,7.47
2023-01-10T12:55:55.380Z,6.93
2023-01-10T12:58:35.952Z,7.53
2023-01-10T13:01:06.962Z,6.95
2023-01-10T13:03:36.346Z,6.40
2023-01-10T13:06:04.006Z,6.45
2023-01-10T13:08:36.512Z,6.10
2023-01-10T13:11:07.750Z,6.45
2023-01-10T13:13:38.686Z,6.50
2023-01-10T13:16:18.621Z,6.20
2023-01-10T13:19:06.024Z,6.15
2023-01-10T13:21:34.568Z,5.65
2023-01-10T13:24:18.293Z,6.25
2023-01-10T13:27:04.046Z,5.85
2023-01-10T13:29:38.968Z,5.80
2023-01-10T13:32:36.801Z,5.35
2023-01-10T13:35:17.639Z,6.20
2023-01-10T13:40:26.011Z,6.18
2023-01-10T13:43:44.746Z,5.72
2023-01-10T13:46:15.325Z,5.40
2023-01-10T13:49:03.649Z,5.10
2023-01-10T13:51:31.692Z,5.22
2023-01-10T13:53:59.933Z,5.57
2023-01-10T13:56:34.823Z,6.25
2023-01-10T13:59:22.305Z,6.40
2023-01-10T14:02:11.533Z,6.22
2023-01-10T14:04:49.828Z,7.10
2023-01-10T14:07:33.408Z,5.35
2023-01-10T14:10:39.158Z,5.20
2023-01-10T14:13:16.886Z,7.38
2023-01-10T14:15:47.624Z,5.40
2023-01-10T14:21:03.202Z,5.30
2023-01-10T14:23:37.304Z,5.63
2023-01-10T14:26:05.410Z,6.35
2023-01-10T14:28:35.456Z,5.47
2023-01-10T14:31:02.795Z,6.32
2023-01-10T14:33:32.104Z,5.95
2023-01-10T14:36:03.574Z,5.20
2023-01-10T14:38:35.071Z,5.68
2023-01-10T14:41:06.724Z,5.57
2023-01-10T14:43:43.675Z,4.53
2023-01-10T14:46:14.154Z,5.93
2023-01-10T14:48:49.133Z,5.55
2023-01-10T14:51:21.913Z,5.45
2023-01-10T14:54:15.785Z,4.70
2023-01-10T14:56:46.610Z,4.72
2023-01-10T14:59:24.099Z,4.00
2023-01-10T15:01:55.188Z,4.50
2023-01-10T15:04:26.198Z,5.50
2023-01-10T15:07:03.192Z,4.57
2023-01-10T15:09:33.910Z,4.78
2023-01-10T15:12:04.621Z,4.65
2023-01-10T15:14:33.734Z,5.57
2023-01-10T15:17:05.533Z,5.15
2023-01-10T15:19:38.046Z,5.13
2023-01-10T15:22:20.552Z,4.75
2023-01-10T15:25:01.823Z,4.32
2023-01-10T15:27:31.083Z,4.90
2023-01-10T15:30:02.719Z,5.47
2023-01-10T15:32:39.517Z,4.32
2023-01-10T15:35:11.417Z,5.10
2023-01-10T15:37:41.105Z,5.00
2023-01-10T15:40:22.532Z,4.53
2023-01-10T15:42:50.112Z,3.83
2023-01-10T15:45:31.662Z,4.00
2023-01-10T15:48:05.331Z,4.18
2023-01-10T15:50:40.656Z,3.85
2023-01-10T15:53:10.317Z,4.10
2023-01-10T15:56:08.996Z,4.85
2023-01-10T15:58:36.984Z,4.40
2023-01-10T16:01:05.351Z,4.40
2023-01-10T16:03:38.823Z,5.15
2023-01-10T16:06:12.486Z,5.55
2023-01-10T16:08:39.803Z,4.00
2023-01-10T16:11:39.704Z,3.95
2023-01-10T16:14:07.149Z,3.90
2023-01-10T16:16:34.723Z,3.88
2023-01-10T16:19:03.022Z,4.10
2023-01-10T16:21:38.249Z,4.28
2023-01-10T16:24:07.778Z,5.18
2023-01-10T16:29:03.402Z,4.15
2023-01-10T16:31:31.899Z,5.07
2023-01-10T16:34:01.940Z,4.00
2023-01-10T16:36:31.386Z,5.32
2023-01-10T16:38:58.905Z,4.00
2023-01-10T16:41:46.351Z,4.32
2023-01-10T16:44:13.814Z,4.20
2023-01-10T16:46:41.262Z,4.85
2023-01-10T16:49:08.456Z,4.32
2023-01-10T16:51:39.103Z,4.55
2023-01-10T16:54:06.456Z,3.97
2023-01-10T16:56:33.808Z,4.15
2023-01-10T16:59:01.122Z,3.92
2023-01-10T17:01:34.305Z,4.30
2023-01-10T17:04:02.084Z,4.32
2023-01-10T17:06:29.659Z,3.92
2023-01-10T17:08:57.493Z,4.00
2023-01-10T17:11:32.275Z,4.38
2023-01-10T17:14:01.546Z,4.50
2023-01-10T17:16:29.015Z,3.70
2023-01-10T17:18:56.789Z,4.25
2023-01-10T17:21:24.682Z,4.30
2023-01-10T17:23:52.008Z,3.85
2023-01-10T17:26:20.132Z,3.65
2023-01-10T17:28:52.756Z,4.00
2023-01-10T17:31:20.464Z,4.75
2023-01-10T17:33:49.351Z,3.47
2023-01-10T17:36:19.484Z,4.10
2023-01-10T17:38:47.167Z,4.35
2023-01-10T17:41:14.694Z,3.53
2023-01-10T17:43:41.983Z,3.95
2023-01-10T17:46:11.072Z,3.70
2023-01-10T17:48:38.595Z,3.53
2023-01-10T17:51:06.300Z,3.55
2023-01-10T17:53:34.050Z,3.83
2023-01-10T17:56:02.033Z,4.10
2023-01-10T17:58:29.435Z,3.55
2023-01-10T18:00:57.735Z,4.18
2023-01-10T18:03:25.299Z,4.05
2023-01-10T18:05:55.833Z,4.88
2023-01-10T18:08:24.248Z,3.30
2023-01-10T18:10:51.947Z,3.40
2023-01-10T18:13:20.978Z,3.38
2023-01-10T18:15:49.872Z,3.17
2023-01-10T18:18:18.021Z,4.35
2023-01-10T18:20:45.556Z,3.50
2023-01-10T18:23:23.280Z,3.17
2023-01-10T18:26:04.565Z,3.15
2023-01-10T18:28:41.753Z,3.00
2023-01-10T18:31:16.981Z,3.03
2023-01-10T18:33:45.807Z,3.15
2023-01-10T18:36:18.641Z,3.00
2023-01-10T18:38:46.901Z,3.20
2023-01-10T18:41:15.314Z,2.80
2023-01-10T18:43:42.720Z,2.45
2023-01-10T18:46:13.098Z,2.78
2023-01-10T18:48:40.432Z,2.90
2023-01-10T18:51:10.098Z,2.85
2023-01-10T18:53:38.497Z,2.30
2023-01-10T18:56:06.186Z,2.70
2023-01-10T18:58:39.880Z,3.05
2023-01-10T19:01:14.042Z,2.78
2023-01-10T19:03:42.305Z,3.25
2023-01-10T19:06:11.911Z,3.35
2023-01-10T19:08:39.606Z,3.33
2023-01-10T19:11:14.047Z,3.10
2023-01-10T19:13:44.014Z,3.60
2023-01-10T19:16:23.496Z,3.05
2023-01-10T19:19:00.730Z,3.55
2023-01-10T19:21:30.730Z,3.95
2023-01-10T19:24:03.459Z,3.92
2023-01-10T19:26:33.003Z,3.55
2023-01-10T19:29:03.084Z,4.68
2023-01-10T19:31:31.658Z,3.90
2023-01-10T19:34:00.420Z,4.22
2023-01-10T19:36:28.561Z,3.80
2023-01-10T19:38:57.204Z,4.20
2023-01-10T19:41:26.348Z,3.92
2023-01-10T19:44:01.602Z,4.07
2023-01-10T19:46:37.055Z,4.50
2023-01-10T19:49:08.082Z,4.40
2023-01-10T19:51:40.293Z,4.35
2023-01-10T19:54:08.879Z,4.75
2023-01-10T19:56:36.968Z,4.00
2023-01-10T19:59:04.369Z,4.10
2023-01-10T20:01:32.155Z,4.45
2023-01-10T20:04:02.477Z,4.20
2023-01-10T20:06:31.702Z,3.95
2023-01-10T20:08:59.402Z,4.05
2023-01-10T20:11:37.922Z,4.32
2023-01-10T20:14:12.068Z,4.00
2023-01-10T20:16:39.501Z,4.88
2023-01-10T20:19:10.085Z,4.15
2023-01-10T20:21:37.916Z,3.80
2023-01-10T20:24:13.526Z,4.38
2023-01-10T20:26:40.972Z,4.80
2023-01-10T20:29:08.833Z,4.22
2023-01-10T20:31:38.874Z,4.13
2023-01-10T20:34:06.208Z,4.25
2023-01-10T20:36:33.657Z,4.50
2023-01-10T20:39:00.991Z,4.90
2023-01-10T20:41:30.156Z,4.40
2023-01-10T20:43:58.290Z,4.43
2023-01-10T20:46:32.052Z,4.22
2023-01-10T20:49:02.380Z,4.38
2023-01-10T20:51:37.840Z,4.38
2023-01-10T20:54:08.262Z,3.88
2023-01-10T20:56:35.847Z,4.32
2023-01-10T20:59:04.210Z,4.57
2023-01-10T21:01:35.209Z,4.68
2023-01-10T21:04:05.759Z,3.80
2023-01-10T21:06:34.657Z,4.70
2023-01-10T21:09:02.194Z,4.38
2023-01-10T21:11:29.716Z,4.28
2023-01-10T21:13:57.158Z,4.65
2023-01-10T21:16:25.718Z,4.50
2023-01-10T21:18:53.289Z,4.70
2023-01-10T21:21:24.911Z,4.88
2023-01-10T21:23:54.174Z,4.65
2023-01-10T21:26:22.378Z,5.30
2023-01-10T21:28:49.757Z,5.30
2023-01-10T21:31:21.867Z,4.95
2023-01-10T21:33:50.279Z,5.82
2023-01-10T21:36:18.207Z,6.53
2023-01-10T21:38:45.657Z,7.80
2023-01-10T21:41:35.550Z,8.48
2023-01-10T21:44:04.397Z,8.67
2023-01-10T21:46:32.244Z,8.70
2023-01-10T21:49:01.570Z,8.00
2023-01-10T21:51:28.941Z,8.82
2023-01-10T21:53:56.240Z,8.80
2023-01-10T21:56:23.642Z,8.65
2023-01-10T21:58:51.049Z,8.98
2023-01-10T22:01:18.515Z,9.35
2023-01-10T22:03:46.272Z,9.35
2023-01-10T22:06:16.334Z,9.45
2023-01-10T22:08:43.795Z,9.90
2023-01-10T22:11:11.365Z,8.57
2023-01-10T22:13:39.262Z,8.75
2023-01-10T22:16:07.228Z,8.68
2023-01-10T22:18:35.000Z,8.43
2023-01-10T22:21:02.646Z,8.80
2023-01-10T22:23:31.008Z,9.00
2023-01-10T22:26:08.332Z,9.25
2023-01-10T22:28:35.815Z,8.82
2023-01-10T22:31:04.208Z,9.13
2023-01-10T22:33:35.988Z,7.70
2023-01-10T22:36:10.158Z,9.55
2023-01-10T22:38:38.001Z,9.43
2023-01-10T22:41:10.633Z,9.02
2023-01-10T22:43:38.298Z,8.90
2023-01-10T22:46:06.631Z,9.95
2023-01-10T22:48:38.632Z,8.52
2023-01-10T22:51:06.095Z,8.60
2023-01-10T22:53:34.884Z,8.40
2023-01-10T22:56:04.106Z,8.27
2023-01-10T22:58:31.836Z,7.55
2023-01-10T23:01:01.341Z,8.15
2023-01-10T23:03:29.128Z,8.50
2023-01-10T23:05:57.824Z,8.27
2023-01-10T23:08:29.248Z,8.30
2023-01-10T23:10:56.552Z,7.53
2023-01-10T23:13:24.552Z,8.27
2023-01-10T23:16:04.086Z,8.57
2023-01-10T23:18:31.813Z,7.15
2023-01-10T23:20:59.856Z,8.20
2023-01-10T23:23:28.988Z,7.63
2023-01-10T23:26:02.560Z,7.03
2023-01-10T23:28:39.403Z,6.80
2023-01-10T23:31:07.616Z,6.18
2023-01-10T23:33:35.656Z,6.63
2023-01-10T23:36:03.768Z,6.53
2023-01-10T23:38:31.604Z,6.38
2023-01-10T23:40:59.497Z,6.05
2023-01-10T23:43:26.978Z,6.43
2023-01-10T23:45:58.408Z,6.30
2023-01-10T23:48:25.928Z,6.05
2023-01-10T23:50:53.810Z,6.18
2023-01-10T23:53:21.126Z,6.90
2023-01-10T23:55:48.463Z,5.75
2023-01-10T23:58:17.077Z,5.25
